sensor_id;sensor_type;location;lat;lon;timestamp;P1;durP1;ratioP1;P2;durP2;ratioP2
56760;SDS011;42633;44.494;11.356;2022-12-18T00:00:59;11.27;;;6.60;;
56760;SDS011;42633;44.494;11.356;2022-12-18T00:04:04;10.02;;;6.35;;
56760;SDS011;42633;44.494;11.356;2022-12-18T00:07:09;7.97;;;6.47;;
56760;SDS011;42633;44.494;11.356;2022-12-18T00:10:13;11.20;;;7.03;;
56760;SDS011;42633;44.494;11.356;2022-12-18T00:13:17;9.93;;;6.40;;
56760;SDS011;42633;44.494;11.356;2022-12-18T00:16:22;8.60;;;6.03;;
56760;SDS011;42633;44.494;11.356;2022-12-18T00:19:27;11.27;;;7.10;;
56760;SDS011;42633;44.494;11.356;2022-12-18T00:22:31;8.98;;;6.40;;
56760;SDS011;42633;44.494;11.356;2022-12-18T00:25:35;10.68;;;6.07;;
56760;SDS011;42633;44.494;11.356;2022-12-18T00:28:39;7.47;;;5.60;;
56760;SDS011;42633;44.494;11.356;2022-12-18T00:31:44;8.50;;;6.43;;
56760;SDS011;42633;44.494;11.356;2022-12-18T00:34:48;10.15;;;7.05;;
56760;SDS011;42633;44.494;11.356;2022-12-18T00:37:52;8.70;;;6.40;;
56760;SDS011;42633;44.494;11.356;2022-12-18T00:40:57;11.95;;;6.30;;
56760;SDS011;42633;44.494;11.356;2022-12-18T00:44:01;8.07;;;5.93;;
56760;SDS011;42633;44.494;11.356;2022-12-18T00:47:07;9.55;;;6.50;;
56760;SDS011;42633;44.494;11.356;2022-12-18T00:50:11;8.07;;;6.65;;
56760;SDS011;42633;44.494;11.356;2022-12-18T00:53:15;13.10;;;6.72;;
56760;SDS011;42633;44.494;11.356;2022-12-18T00:56:19;9.82;;;6.95;;
56760;SDS011;42633;44.494;11.356;2022-12-18T00:59:23;8.70;;;5.80;;
56760;SDS011;42633;44.494;11.356;2022-12-18T01:02:27;9.18;;;6.60;;
56760;SDS011;42633;44.494;11.356;2022-12-18T01:05:32;7.93;;;6.03;;
56760;SDS011;42633;44.494;11.356;2022-12-18T01:08:36;9.48;;;6.63;;
56760;SDS011;42633;44.494;11.356;2022-12-18T01:11:41;8.10;;;6.22;;
56760;SDS011;42633;44.494;11.356;2022-12-18T01:14:47;9.55;;;7.10;;
56760;SDS011;42633;44.494;11.356;2022-12-18T01:17:52;12.20;;;6.68;;
56760;SDS011;42633;44.494;11.356;2022-12-18T01:20:57;9.68;;;7.10;;
56760;SDS011;42633;44.494;11.356;2022-12-18T01:24:01;11.60;;;6.28;;
56760;SDS011;42633;44.494;11.356;2022-12-18T01:27:05;10.30;;;6.50;;
56760;SDS011;42633;44.494;11.356;2022-12-18T01:30:09;10.77;;;5.90;;
56760;SDS011;42633;44.494;11.356;2022-12-18T01:33:14;7.30;;;5.90;;
56760;SDS011;42633;44.494;11.356;2022-12-18T01:39:27;9.98;;;6.93;;
56760;SDS011;42633;44.494;11.356;2022-12-18T01:42:32;10.18;;;6.40;;
56760;SDS011;42633;44.494;11.356;2022-12-18T01:45:35;8.52;;;6.00;;
56760;SDS011;42633;44.494;11.356;2022-12-18T01:48:41;8.18;;;6.50;;
56760;SDS011;42633;44.494;11.356;2022-12-18T01:51:48;12.98;;;7.20;;
56760;SDS011;42633;44.494;11.356;2022-12-18T01:54:52;10.15;;;6.80;;
56760;SDS011;42633;44.494;11.356;2022-12-18T01:57:58;9.70;;;6.88;;
56760;SDS011;42633;44.494;11.356;2022-12-18T02:01:04;8.35;;;6.78;;
56760;SDS011;42633;44.494;11.356;2022-12-18T02:04:18;9.13;;;7.05;;
56760;SDS011;42633;44.494;11.356;2022-12-18T02:07:37;8.20;;;6.60;;
56760;SDS011;42633;44.494;11.356;2022-12-18T02:11:03;8.25;;;7.25;;
56760;SDS011;42633;44.494;11.356;2022-12-18T02:14:23;8.75;;;7.30;;
56760;SDS011;42633;44.494;11.356;2022-12-18T02:17:43;9.90;;;7.40;;
56760;SDS011;42633;44.494;11.356;2022-12-18T02:20:58;12.02;;;8.07;;
56760;SDS011;42633;44.494;11.356;2022-12-18T02:24:23;9.88;;;7.20;;
56760;SDS011;42633;44.494;11.356;2022-12-18T02:27:47;10.50;;;7.85;;
56760;SDS011;42633;44.494;11.356;2022-12-18T02:31:01;11.77;;;7.43;;
56760;SDS011;42633;44.494;11.356;2022-12-18T02:34:09;11.88;;;7.63;;
56760;SDS011;42633;44.494;11.356;2022-12-18T02:37:16;12.27;;;7.82;;
56760;SDS011;42633;44.494;11.356;2022-12-18T02:40:24;9.05;;;7.18;;
56760;SDS011;42633;44.494;11.356;2022-12-18T02:43:30;11.32;;;8.35;;
56760;SDS011;42633;44.494;11.356;2022-12-18T02:50:22;13.57;;;8.07;;
56760;SDS011;42633;44.494;11.356;2022-12-18T02:53:39;11.07;;;8.07;;
56760;SDS011;42633;44.494;11.356;2022-12-18T02:56:56;12.15;;;7.82;;
56760;SDS011;42633;44.494;11.356;2022-12-18T03:00:11;11.00;;;7.43;;
56760;SDS011;42633;44.494;11.356;2022-12-18T03:03:24;12.10;;;8.02;;
56760;SDS011;42633;44.494;11.356;2022-12-18T03:09:46;10.50;;;7.78;;
56760;SDS011;42633;44.494;11.356;2022-12-18T03:13:16;9.48;;;7.30;;
56760;SDS011;42633;44.494;11.356;2022-12-18T03:16:23;10.75;;;7.55;;
56760;SDS011;42633;44.494;11.356;2022-12-18T03:19:32;9.70;;;7.45;;
56760;SDS011;42633;44.494;11.356;2022-12-18T03:22:39;10.07;;;8.35;;
56760;SDS011;42633;44.494;11.356;2022-12-18T03:25:46;9.02;;;7.10;;
56760;SDS011;42633;44.494;11.356;2022-12-18T03:28:53;18.75;;;8.80;;
56760;SDS011;42633;44.494;11.356;2022-12-18T03:32:08;14.23;;;8.40;;
56760;SDS011;42633;44.494;11.356;2022-12-18T03:35:41;13.20;;;8.90;;
56760;SDS011;42633;44.494;11.356;2022-12-18T03:38:49;11.52;;;7.75;;
56760;SDS011;42633;44.494;11.356;2022-12-18T03:42:15;10.57;;;8.20;;
56760;SDS011;42633;44.494;11.356;2022-12-18T03:45:38;10.95;;;7.65;;
56760;SDS011;42633;44.494;11.356;2022-12-18T03:48:52;10.65;;;7.78;;
56760;SDS011;42633;44.494;11.356;2022-12-18T03:55:34;10.05;;;8.20;;
56760;SDS011;42633;44.494;11.356;2022-12-18T03:58:43;21.15;;;8.23;;
56760;SDS011;42633;44.494;11.356;2022-12-18T04:02:00;26.50;;;10.00;;
56760;SDS011;42633;44.494;11.356;2022-12-18T04:05:07;10.10;;;7.95;;
56760;SDS011;42633;44.494;11.356;2022-12-18T04:08:16;11.07;;;7.03;;
56760;SDS011;42633;44.494;11.356;2022-12-18T04:11:28;12.07;;;7.88;;
56760;SDS011;42633;44.494;11.356;2022-12-18T04:14:32;10.48;;;7.97;;
56760;SDS011;42633;44.494;11.356;2022-12-18T04:17:43;12.52;;;8.32;;
56760;SDS011;42633;44.494;11.356;2022-12-18T04:20:56;11.20;;;8.35;;
56760;SDS011;42633;44.494;11.356;2022-12-18T04:24:04;9.85;;;7.00;;
56760;SDS011;42633;44.494;11.356;2022-12-18T04:27:11;14.75;;;8.18;;
56760;SDS011;42633;44.494;11.356;2022-12-18T04:30:20;10.75;;;7.72;;
56760;SDS011;42633;44.494;11.356;2022-12-18T04:33:24;10.95;;;7.72;;
56760;SDS011;42633;44.494;11.356;2022-12-18T04:36:28;9.88;;;8.02;;
56760;SDS011;42633;44.494;11.356;2022-12-18T04:39:35;12.17;;;7.70;;
56760;SDS011;42633;44.494;11.356;2022-12-18T04:42:45;13.77;;;8.38;;
56760;SDS011;42633;44.494;11.356;2022-12-18T04:45:49;9.68;;;7.20;;
56760;SDS011;42633;44.494;11.356;2022-12-18T04:48:53;12.13;;;7.40;;
56760;SDS011;42633;44.494;11.356;2022-12-18T04:52:00;10.88;;;7.72;;
56760;SDS011;42633;44.494;11.356;2022-12-18T04:55:05;15.00;;;8.10;;
56760;SDS011;42633;44.494;11.356;2022-12-18T04:58:09;11.73;;;7.75;;
56760;SDS011;42633;44.494;11.356;2022-12-18T05:01:13;11.05;;;7.63;;
56760;SDS011;42633;44.494;11.356;2022-12-18T05:04:19;9.02;;;6.97;;
56760;SDS011;42633;44.494;11.356;2022-12-18T05:07:23;10.27;;;7.45;;
56760;SDS011;42633;44.494;11.356;2022-12-18T05:10:27;11.63;;;7.40;;
56760;SDS011;42633;44.494;11.356;2022-12-18T05:13:31;10.55;;;7.18;;
56760;SDS011;42633;44.494;11.356;2022-12-18T05:16:36;8.85;;;7.28;;
56760;SDS011;42633;44.494;11.356;2022-12-18T05:19:40;9.07;;;7.10;;
56760;SDS011;42633;44.494;11.356;2022-12-18T05:22:44;10.32;;;7.05;;
56760;SDS011;42633;44.494;11.356;2022-12-18T05:25:52;10.68;;;7.38;;
56760;SDS011;42633;44.494;11.356;2022-12-18T05:28:56;10.32;;;7.05;;
56760;SDS011;42633;44.494;11.356;2022-12-18T05:32:01;10.57;;;7.50;;
56760;SDS011;42633;44.494;11.356;2022-12-18T05:35:05;10.40;;;7.90;;
56760;SDS011;42633;44.494;11.356;2022-12-18T05:38:10;9.88;;;7.45;;
56760;SDS011;42633;44.494;11.356;2022-12-18T05:41:14;9.95;;;7.72;;
56760;SDS011;42633;44.494;11.356;2022-12-18T05:44:18;11.90;;;7.75;;
56760;SDS011;42633;44.494;11.356;2022-12-18T05:47:22;10.15;;;7.10;;
56760;SDS011;42633;44.494;11.356;2022-12-18T05:50:26;15.85;;;7.40;;
56760;SDS011;42633;44.494;11.356;2022-12-18T05:53:38;11.02;;;7.95;;
56760;SDS011;42633;44.494;11.356;2022-12-18T05:56:49;10.75;;;7.57;;
56760;SDS011;42633;44.494;11.356;2022-12-18T05:59:53;12.80;;;7.75;;
56760;SDS011;42633;44.494;11.356;2022-12-18T06:02:58;11.70;;;8.18;;
56760;SDS011;42633;44.494;11.356;2022-12-18T06:06:02;11.48;;;7.57;;
56760;SDS011;42633;44.494;11.356;2022-12-18T06:09:06;10.32;;;8.40;;
56760;SDS011;42633;44.494;11.356;2022-12-18T06:12:12;9.68;;;7.32;;
56760;SDS011;42633;44.494;11.356;2022-12-18T06:15:16;11.20;;;7.70;;
56760;SDS011;42633;44.494;11.356;2022-12-18T06:18:23;10.25;;;8.00;;
56760;SDS011;42633;44.494;11.356;2022-12-18T06:21:33;9.93;;;7.20;;
56760;SDS011;42633;44.494;11.356;2022-12-18T06:24:38;15.80;;;8.57;;
56760;SDS011;42633;44.494;11.356;2022-12-18T06:27:42;11.38;;;7.60;;
56760;SDS011;42633;44.494;11.356;2022-12-18T06:30:47;14.38;;;8.15;;
56760;SDS011;42633;44.494;11.356;2022-12-18T06:33:51;8.63;;;7.35;;
56760;SDS011;42633;44.494;11.356;2022-12-18T06:36:55;10.38;;;7.18;;
56760;SDS011;42633;44.494;11.356;2022-12-18T06:40:00;12.57;;;8.18;;
56760;SDS011;42633;44.494;11.356;2022-12-18T06:43:05;12.13;;;7.95;;
56760;SDS011;42633;44.494;11.356;2022-12-18T06:46:09;11.90;;;7.53;;
56760;SDS011;42633;44.494;11.356;2022-12-18T06:49:14;9.38;;;6.63;;
56760;SDS011;42633;44.494;11.356;2022-12-18T06:52:19;10.15;;;7.75;;
56760;SDS011;42633;44.494;11.356;2022-12-18T06:55:23;13.57;;;8.23;;
56760;SDS011;42633;44.494;11.356;2022-12-18T06:58:27;11.90;;;8.63;;
56760;SDS011;42633;44.494;11.356;2022-12-18T07:01:33;11.43;;;7.75;;
56760;SDS011;42633;44.494;11.356;2022-12-18T07:04:38;10.88;;;8.40;;
56760;SDS011;42633;44.494;11.356;2022-12-18T07:07:42;12.77;;;9.52;;
56760;SDS011;42633;44.494;11.356;2022-12-18T07:10:46;13.77;;;8.60;;
56760;SDS011;42633;44.494;11.356;2022-12-18T07:13:52;13.02;;;8.45;;
56760;SDS011;42633;44.494;11.356;2022-12-18T07:16:56;11.45;;;8.90;;
56760;SDS011;42633;44.494;11.356;2022-12-18T07:20:00;13.50;;;9.45;;
56760;SDS011;42633;44.494;11.356;2022-12-18T07:23:05;13.23;;;8.35;;
56760;SDS011;42633;44.494;11.356;2022-12-18T07:26:10;11.52;;;8.25;;
56760;SDS011;42633;44.494;11.356;2022-12-18T07:29:16;11.05;;;7.72;;
56760;SDS011;42633;44.494;11.356;2022-12-18T07:32:20;14.88;;;8.45;;
56760;SDS011;42633;44.494;11.356;2022-12-18T07:35:24;13.02;;;8.32;;
56760;SDS011;42633;44.494;11.356;2022-12-18T07:38:28;10.48;;;8.13;;
56760;SDS011;42633;44.494;11.356;2022-12-18T07:41:32;13.68;;;8.77;;
56760;SDS011;42633;44.494;11.356;2022-12-18T07:44:45;13.63;;;8.20;;
56760;SDS011;42633;44.494;11.356;2022-12-18T07:47:49;13.18;;;8.63;;
56760;SDS011;42633;44.494;11.356;2022-12-18T07:50:53;18.73;;;9.35;;
56760;SDS011;42633;44.494;11.356;2022-12-18T07:54:01;14.55;;;8.25;;
56760;SDS011;42633;44.494;11.356;2022-12-18T07:57:05;17.42;;;8.48;;
56760;SDS011;42633;44.494;11.356;2022-12-18T08:00:09;9.55;;;7.93;;
56760;SDS011;42633;44.494;11.356;2022-12-18T08:03:17;12.85;;;8.10;;
56760;SDS011;42633;44.494;11.356;2022-12-18T08:06:22;14.80;;;8.60;;
56760;SDS011;42633;44.494;11.356;2022-12-18T08:09:28;9.95;;;8.27;;
56760;SDS011;42633;44.494;11.356;2022-12-18T08:12:32;13.43;;;9.63;;
56760;SDS011;42633;44.494;11.356;2022-12-18T08:15:36;13.57;;;8.82;;
56760;SDS011;42633;44.494;11.356;2022-12-18T08:18:40;14.88;;;9.25;;
56760;SDS011;42633;44.494;11.356;2022-12-18T08:21:44;15.90;;;9.93;;
56760;SDS011;42633;44.494;11.356;2022-12-18T08:24:55;13.43;;;8.77;;
56760;SDS011;42633;44.494;11.356;2022-12-18T08:27:59;11.02;;;8.45;;
56760;SDS011;42633;44.494;11.356;2022-12-18T08:31:03;12.35;;;9.60;;
56760;SDS011;42633;44.494;11.356;2022-12-18T08:34:07;12.40;;;8.82;;
56760;SDS011;42633;44.494;11.356;2022-12-18T08:37:11;15.00;;;9.50;;
56760;SDS011;42633;44.494;11.356;2022-12-18T08:40:15;14.77;;;10.00;;
56760;SDS011;42633;44.494;11.356;2022-12-18T08:43:19;13.98;;;9.75;;
56760;SDS011;42633;44.494;11.356;2022-12-18T08:46:42;13.38;;;9.18;;
56760;SDS011;42633;44.494;11.356;2022-12-18T08:49:48;16.48;;;9.43;;
56760;SDS011;42633;44.494;11.356;2022-12-18T08:52:53;12.20;;;9.65;;
56760;SDS011;42633;44.494;11.356;2022-12-18T08:55:57;11.73;;;9.25;;
56760;SDS011;42633;44.494;11.356;2022-12-18T09:02:50;13.20;;;9.52;;
56760;SDS011;42633;44.494;11.356;2022-12-18T09:05:53;13.65;;;9.20;;
56760;SDS011;42633;44.494;11.356;2022-12-18T09:08:58;15.20;;;10.32;;
56760;SDS011;42633;44.494;11.356;2022-12-18T09:12:02;18.40;;;10.02;;
56760;SDS011;42633;44.494;11.356;2022-12-18T09:15:06;13.18;;;8.27;;
56760;SDS011;42633;44.494;11.356;2022-12-18T09:18:10;10.27;;;8.30;;
56760;SDS011;42633;44.494;11.356;2022-12-18T09:21:16;13.88;;;9.00;;
56760;SDS011;42633;44.494;11.356;2022-12-18T09:24:25;10.02;;;7.90;;
56760;SDS011;42633;44.494;11.356;2022-12-18T09:27:33;11.45;;;8.13;;
56760;SDS011;42633;44.494;11.356;2022-12-18T09:30:38;11.95;;;8.55;;
56760;SDS011;42633;44.494;11.356;2022-12-18T09:33:43;13.70;;;8.15;;
56760;SDS011;42633;44.494;11.356;2022-12-18T09:36:48;15.77;;;9.85;;
56760;SDS011;42633;44.494;11.356;2022-12-18T09:39:59;11.25;;;8.20;;
56760;SDS011;42633;44.494;11.356;2022-12-18T09:43:03;15.13;;;9.48;;
56760;SDS011;42633;44.494;11.356;2022-12-18T09:46:10;13.77;;;9.70;;
56760;SDS011;42633;44.494;11.356;2022-12-18T09:49:30;17.33;;;8.98;;
56760;SDS011;42633;44.494;11.356;2022-12-18T09:52:42;15.02;;;9.52;;
56760;SDS011;42633;44.494;11.356;2022-12-18T09:55:50;14.98;;;9.07;;
56760;SDS011;42633;44.494;11.356;2022-12-18T09:58:59;12.90;;;8.13;;
56760;SDS011;42633;44.494;11.356;2022-12-18T10:02:15;16.27;;;10.75;;
56760;SDS011;42633;44.494;11.356;2022-12-18T10:08:49;20.42;;;10.20;;
56760;SDS011;42633;44.494;11.356;2022-12-18T10:12:19;20.50;;;9.82;;
56760;SDS011;42633;44.494;11.356;2022-12-18T10:18:58;15.93;;;9.43;;
56760;SDS011;42633;44.494;11.356;2022-12-18T10:28:29;13.68;;;8.95;;
56760;SDS011;42633;44.494;11.356;2022-12-18T10:31:34;19.13;;;9.30;;
56760;SDS011;42633;44.494;11.356;2022-12-18T10:34:38;13.82;;;9.18;;
56760;SDS011;42633;44.494;11.356;2022-12-18T10:38:05;14.10;;;9.10;;
56760;SDS011;42633;44.494;11.356;2022-12-18T10:41:25;13.40;;;9.30;;
56760;SDS011;42633;44.494;11.356;2022-12-18T10:44:30;11.18;;;9.38;;
56760;SDS011;42633;44.494;11.356;2022-12-18T10:47:34;15.48;;;9.73;;
56760;SDS011;42633;44.494;11.356;2022-12-18T10:50:39;18.85;;;10.52;;
56760;SDS011;42633;44.494;11.356;2022-12-18T10:53:44;15.48;;;9.75;;
56760;SDS011;42633;44.494;11.356;2022-12-18T11:00:31;17.85;;;10.77;;
56760;SDS011;42633;44.494;11.356;2022-12-18T11:10:15;19.98;;;9.57;;
56760;SDS011;42633;44.494;11.356;2022-12-18T11:13:25;22.15;;;12.13;;
56760;SDS011;42633;44.494;11.356;2022-12-18T11:16:43;14.27;;;10.02;;
56760;SDS011;42633;44.494;11.356;2022-12-18T11:19:52;12.85;;;10.13;;
56760;SDS011;42633;44.494;11.356;2022-12-18T11:22:59;15.55;;;9.65;;
56760;SDS011;42633;44.494;11.356;2022-12-18T11:26:09;18.98;;;11.02;;
56760;SDS011;42633;44.494;11.356;2022-12-18T11:29:17;22.63;;;10.88;;
56760;SDS011;42633;44.494;11.356;2022-12-18T11:32:38;17.95;;;10.60;;
56760;SDS011;42633;44.494;11.356;2022-12-18T11:38:56;18.67;;;10.60;;
56760;SDS011;42633;44.494;11.356;2022-12-18T11:45:40;15.95;;;10.20;;
56760;SDS011;42633;44.494;11.356;2022-12-18T11:49:07;19.15;;;10.73;;
56760;SDS011;42633;44.494;11.356;2022-12-18T11:52:19;21.05;;;10.80;;
56760;SDS011;42633;44.494;11.356;2022-12-18T11:56:25;15.75;;;9.82;;
56760;SDS011;42633;44.494;11.356;2022-12-18T11:59:28;14.52;;;9.88;;
56760;SDS011;42633;44.494;11.356;2022-12-18T12:06:08;14.80;;;9.70;;
56760;SDS011;42633;44.494;11.356;2022-12-18T12:16:25;16.90;;;10.15;;
56760;SDS011;42633;44.494;11.356;2022-12-18T12:30:32;15.52;;;8.57;;
56760;SDS011;42633;44.494;11.356;2022-12-18T12:37:03;16.35;;;11.05;;
56760;SDS011;42633;44.494;11.356;2022-12-18T12:40:12;15.85;;;9.25;;
56760;SDS011;42633;44.494;11.356;2022-12-18T12:43:32;15.52;;;10.25;;
56760;SDS011;42633;44.494;11.356;2022-12-18T12:46:51;14.43;;;9.70;;
56760;SDS011;42633;44.494;11.356;2022-12-18T12:49:58;12.52;;;9.40;;
56760;SDS011;42633;44.494;11.356;2022-12-18T12:56:12;13.68;;;9.50;;
56760;SDS011;42633;44.494;11.356;2022-12-18T12:59:26;16.23;;;9.48;;
56760;SDS011;42633;44.494;11.356;2022-12-18T13:06:16;14.85;;;9.60;;
56760;SDS011;42633;44.494;11.356;2022-12-18T13:13:17;16.45;;;10.00;;
56760;SDS011;42633;44.494;11.356;2022-12-18T13:16:23;14.68;;;9.90;;
56760;SDS011;42633;44.494;11.356;2022-12-18T13:19:29;13.77;;;10.48;;
56760;SDS011;42633;44.494;11.356;2022-12-18T13:22:46;15.32;;;10.40;;
56760;SDS011;42633;44.494;11.356;2022-12-18T13:29:00;17.23;;;11.30;;
56760;SDS011;42633;44.494;11.356;2022-12-18T13:32:10;16.58;;;11.40;;
56760;SDS011;42633;44.494;11.356;2022-12-18T13:41:34;16.45;;;10.15;;
56760;SDS011;42633;44.494;11.356;2022-12-18T13:44:39;15.30;;;10.25;;
56760;SDS011;42633;44.494;11.356;2022-12-18T13:47:44;15.38;;;10.65;;
56760;SDS011;42633;44.494;11.356;2022-12-18T13:51:09;22.20;;;11.88;;
56760;SDS011;42633;44.494;11.356;2022-12-18T13:57:33;17.58;;;11.20;;
56760;SDS011;42633;44.494;11.356;2022-12-18T14:00:42;16.45;;;12.18;;
56760;SDS011;42633;44.494;11.356;2022-12-18T14:03:47;15.25;;;11.20;;
56760;SDS011;42633;44.494;11.356;2022-12-18T14:06:52;16.50;;;12.05;;
56760;SDS011;42633;44.494;11.356;2022-12-18T14:10:01;21.25;;;12.65;;
56760;SDS011;42633;44.494;11.356;2022-12-18T14:13:08;19.73;;;12.18;;
56760;SDS011;42633;44.494;11.356;2022-12-18T14:16:15;19.25;;;11.98;;
56760;SDS011;42633;44.494;11.356;2022-12-18T14:19:20;17.98;;;11.63;;
56760;SDS011;42633;44.494;11.356;2022-12-18T14:22:25;22.45;;;12.27;;
56760;SDS011;42633;44.494;11.356;2022-12-18T14:25:32;17.70;;;12.35;;
56760;SDS011;42633;44.494;11.356;2022-12-18T14:28:42;15.38;;;10.85;;
56760;SDS011;42633;44.494;11.356;2022-12-18T14:32:03;22.35;;;12.32;;
56760;SDS011;42633;44.494;11.356;2022-12-18T14:35:13;16.48;;;11.90;;
56760;SDS011;42633;44.494;11.356;2022-12-18T14:38:23;19.80;;;13.63;;
56760;SDS011;42633;44.494;11.356;2022-12-18T14:41:30;17.27;;;13.45;;
56760;SDS011;42633;44.494;11.356;2022-12-18T14:44:36;17.75;;;12.43;;
56760;SDS011;42633;44.494;11.356;2022-12-18T14:47:42;19.98;;;13.25;;
56760;SDS011;42633;44.494;11.356;2022-12-18T14:50:54;20.48;;;12.52;;
56760;SDS011;42633;44.494;11.356;2022-12-18T14:54:20;22.38;;;13.77;;
56760;SDS011;42633;44.494;11.356;2022-12-18T14:57:25;17.48;;;12.43;;
56760;SDS011;42633;44.494;11.356;2022-12-18T15:00:35;19.70;;;12.57;;
56760;SDS011;42633;44.494;11.356;2022-12-18T15:03:45;21.10;;;13.23;;
56760;SDS011;42633;44.494;11.356;2022-12-18T15:06:50;20.85;;;13.32;;
56760;SDS011;42633;44.494;11.356;2022-12-18T15:13:26;29.60;;;14.85;;
56760;SDS011;42633;44.494;11.356;2022-12-18T15:16:30;18.45;;;12.88;;
56760;SDS011;42633;44.494;11.356;2022-12-18T15:19:36;18.23;;;12.70;;
56760;SDS011;42633;44.494;11.356;2022-12-18T15:22:42;25.95;;;14.95;;
56760;SDS011;42633;44.494;11.356;2022-12-18T15:25:46;18.35;;;14.05;;
56760;SDS011;42633;44.494;11.356;2022-12-18T15:28:53;24.20;;;14.93;;
56760;SDS011;42633;44.494;11.356;2022-12-18T15:32:05;18.40;;;14.50;;
56760;SDS011;42633;44.494;11.356;2022-12-18T15:35:23;18.48;;;14.00;;
56760;SDS011;42633;44.494;11.356;2022-12-18T15:38:28;24.80;;;14.52;;
56760;SDS011;42633;44.494;11.356;2022-12-18T15:41:34;22.17;;;13.93;;
56760;SDS011;42633;44.494;11.356;2022-12-18T15:44:39;22.75;;;15.50;;
56760;SDS011;42633;44.494;11.356;2022-12-18T15:47:43;22.67;;;14.27;;
56760;SDS011;42633;44.494;11.356;2022-12-18T15:50:47;19.63;;;13.88;;
56760;SDS011;42633;44.494;11.356;2022-12-18T15:53:57;19.73;;;13.77;;
56760;SDS011;42633;44.494;11.356;2022-12-18T15:57:08;19.48;;;14.15;;
56760;SDS011;42633;44.494;11.356;2022-12-18T16:00:40;29.48;;;16.73;;
56760;SDS011;42633;44.494;11.356;2022-12-18T16:03:44;23.27;;;16.02;;
56760;SDS011;42633;44.494;11.356;2022-12-18T16:06:48;21.08;;;14.57;;
56760;SDS011;42633;44.494;11.356;2022-12-18T16:09:55;28.38;;;16.02;;
56760;SDS011;42633;44.494;11.356;2022-12-18T16:12:59;25.13;;;14.63;;
56760;SDS011;42633;44.494;11.356;2022-12-18T16:16:03;21.77;;;14.75;;
56760;SDS011;42633;44.494;11.356;2022-12-18T16:19:08;20.92;;;15.18;;
56760;SDS011;42633;44.494;11.356;2022-12-18T16:22:19;21.98;;;13.77;;
56760;SDS011;42633;44.494;11.356;2022-12-18T16:25:26;26.92;;;13.95;;
56760;SDS011;42633;44.494;11.356;2022-12-18T16:28:31;22.30;;;12.98;;
56760;SDS011;42633;44.494;11.356;2022-12-18T16:31:35;26.63;;;14.88;;
56760;SDS011;42633;44.494;11.356;2022-12-18T16:34:40;25.70;;;16.33;;
56760;SDS011;42633;44.494;11.356;2022-12-18T16:37:45;33.45;;;17.25;;
56760;SDS011;42633;44.494;11.356;2022-12-18T16:40:49;30.25;;;17.95;;
56760;SDS011;42633;44.494;11.356;2022-12-18T16:44:12;35.00;;;21.05;;
56760;SDS011;42633;44.494;11.356;2022-12-18T16:47:17;28.90;;;19.30;;
56760;SDS011;42633;44.494;11.356;2022-12-18T16:50:25;26.58;;;16.70;;
56760;SDS011;42633;44.494;11.356;2022-12-18T16:53:29;31.00;;;17.27;;
56760;SDS011;42633;44.494;11.356;2022-12-18T16:56:35;23.10;;;17.00;;
56760;SDS011;42633;44.494;11.356;2022-12-18T16:59:39;24.45;;;16.23;;
56760;SDS011;42633;44.494;11.356;2022-12-18T17:02:44;28.20;;;17.88;;
56760;SDS011;42633;44.494;11.356;2022-12-18T17:05:48;25.17;;;16.55;;
56760;SDS011;42633;44.494;11.356;2022-12-18T17:08:56;24.02;;;15.52;;
56760;SDS011;42633;44.494;11.356;2022-12-18T17:12:02;29.27;;;18.20;;
56760;SDS011;42633;44.494;11.356;2022-12-18T17:15:07;27.75;;;17.63;;
56760;SDS011;42633;44.494;11.356;2022-12-18T17:18:12;28.13;;;16.83;;
56760;SDS011;42633;44.494;11.356;2022-12-18T17:21:16;23.08;;;16.67;;
56760;SDS011;42633;44.494;11.356;2022-12-18T17:24:20;31.13;;;17.48;;
56760;SDS011;42633;44.494;11.356;2022-12-18T17:27:23;21.55;;;14.88;;
56760;SDS011;42633;44.494;11.356;2022-12-18T17:30:28;20.92;;;15.93;;
56760;SDS011;42633;44.494;11.356;2022-12-18T17:33:32;26.25;;;16.40;;
56760;SDS011;42633;44.494;11.356;2022-12-18T17:36:37;23.23;;;15.05;;
56760;SDS011;42633;44.494;11.356;2022-12-18T17:39:42;22.50;;;15.57;;
56760;SDS011;42633;44.494;11.356;2022-12-18T17:42:46;24.77;;;16.73;;
56760;SDS011;42633;44.494;11.356;2022-12-18T17:45:50;27.95;;;18.23;;
56760;SDS011;42633;44.494;11.356;2022-12-18T17:48:54;24.67;;;15.73;;
56760;SDS011;42633;44.494;11.356;2022-12-18T17:51:58;20.88;;;15.38;;
56760;SDS011;42633;44.494;11.356;2022-12-18T17:55:02;24.70;;;17.13;;
56760;SDS011;42633;44.494;11.356;2022-12-18T17:58:08;24.63;;;16.63;;
56760;SDS011;42633;44.494;11.356;2022-12-18T18:01:14;25.20;;;16.45;;
56760;SDS011;42633;44.494;11.356;2022-12-18T18:04:20;23.50;;;16.67;;
56760;SDS011;42633;44.494;11.356;2022-12-18T18:07:24;24.40;;;17.15;;
56760;SDS011;42633;44.494;11.356;2022-12-18T18:10:30;23.95;;;17.15;;
56760;SDS011;42633;44.494;11.356;2022-12-18T18:13:45;28.97;;;20.57;;
56760;SDS011;42633;44.494;11.356;2022-12-18T18:17:05;29.67;;;21.65;;
56760;SDS011;42633;44.494;11.356;2022-12-18T18:20:09;27.88;;;19.42;;
56760;SDS011;42633;44.494;11.356;2022-12-18T18:23:13;33.28;;;21.98;;
56760;SDS011;42633;44.494;11.356;2022-12-18T18:26:17;38.22;;;24.23;;
56760;SDS011;42633;44.494;11.356;2022-12-18T18:29:22;32.20;;;21.00;;
56760;SDS011;42633;44.494;11.356;2022-12-18T18:32:28;31.65;;;23.02;;
56760;SDS011;42633;44.494;11.356;2022-12-18T18:35:32;32.08;;;21.98;;
56760;SDS011;42633;44.494;11.356;2022-12-18T18:38:37;32.60;;;22.15;;
56760;SDS011;42633;44.494;11.356;2022-12-18T18:41:42;35.42;;;22.98;;
56760;SDS011;42633;44.494;11.356;2022-12-18T18:44:46;44.05;;;24.50;;
56760;SDS011;42633;44.494;11.356;2022-12-18T18:47:50;32.25;;;20.42;;
56760;SDS011;42633;44.494;11.356;2022-12-18T18:50:55;31.45;;;21.67;;
56760;SDS011;42633;44.494;11.356;2022-12-18T18:54:00;28.98;;;19.33;;
56760;SDS011;42633;44.494;11.356;2022-12-18T18:57:04;29.80;;;20.13;;
56760;SDS011;42633;44.494;11.356;2022-12-18T19:00:08;31.23;;;20.08;;
56760;SDS011;42633;44.494;11.356;2022-12-18T19:03:14;31.05;;;19.40;;
56760;SDS011;42633;44.494;11.356;2022-12-18T19:06:24;29.23;;;19.52;;
56760;SDS011;42633;44.494;11.356;2022-12-18T19:09:29;28.40;;;19.10;;
56760;SDS011;42633;44.494;11.356;2022-12-18T19:13:20;28.13;;;17.60;;
56760;SDS011;42633;44.494;11.356;2022-12-18T19:16:27;33.20;;;23.42;;
56760;SDS011;42633;44.494;11.356;2022-12-18T19:19:31;26.95;;;19.88;;
56760;SDS011;42633;44.494;11.356;2022-12-18T19:22:35;29.90;;;19.75;;
56760;SDS011;42633;44.494;11.356;2022-12-18T19:25:39;27.05;;;18.55;;
56760;SDS011;42633;44.494;11.356;2022-12-18T19:28:43;27.45;;;19.15;;
56760;SDS011;42633;44.494;11.356;2022-12-18T19:31:47;29.40;;;20.73;;
56760;SDS011;42633;44.494;11.356;2022-12-18T19:34:52;30.45;;;21.35;;
56760;SDS011;42633;44.494;11.356;2022-12-18T19:37:55;30.80;;;19.27;;
56760;SDS011;42633;44.494;11.356;2022-12-18T19:40:59;27.55;;;20.75;;
56760;SDS011;42633;44.494;11.356;2022-12-18T19:44:09;31.52;;;21.08;;
56760;SDS011;42633;44.494;11.356;2022-12-18T19:47:14;33.85;;;21.42;;
56760;SDS011;42633;44.494;11.356;2022-12-18T19:50:18;34.90;;;22.45;;
56760;SDS011;42633;44.494;11.356;2022-12-18T19:53:22;33.88;;;21.30;;